createdAt,value
2022-12-04T00:01:44.110Z,13.40
2022-12-04T00:04:11.904Z,14.25
2022-12-04T00:06:39.681Z,13.25
2022-12-04T00:09:07.250Z,15.48
2022-12-04T00:11:36.065Z,13.13
2022-12-04T00:14:07.199Z,13.40
2022-12-04T00:16:35.428Z,13.88
2022-12-04T00:19:03.175Z,13.90
2022-12-04T00:21:31.870Z,15.48
2022-12-04T00:23:59.595Z,52.67
2022-12-04T00:26:28.363Z,27.77
2022-12-04T00:28:56.672Z,18.40
2022-12-04T00:31:25.749Z,13.65
2022-12-04T00:33:53.729Z,24.85
2022-12-04T00:36:22.622Z,15.05
2022-12-04T00:38:50.425Z,22.13
2022-12-04T00:41:20.174Z,14.70
2022-12-04T00:43:47.830Z,13.55
2022-12-04T00:46:15.858Z,13.57
2022-12-04T00:48:44.228Z,16.15
2022-12-04T00:51:13.249Z,14.20
2022-12-04T00:53:40.915Z,13.65
2022-12-04T00:56:09.734Z,12.75
2022-12-04T00:58:37.408Z,13.57
2022-12-04T01:01:09.500Z,14.80
2022-12-04T01:03:38.337Z,25.67
2022-12-04T01:06:06.378Z,14.82
2022-12-04T01:08:34.876Z,13.48
2022-12-04T01:11:06.107Z,13.13
2022-12-04T01:13:33.776Z,13.40
2022-12-04T01:16:01.548Z,13.32
2022-12-04T01:18:29.242Z,13.20
2022-12-04T01:20:56.841Z,13.00
2022-12-04T01:23:24.388Z,12.63
2022-12-04T01:25:52.881Z,12.55
2022-12-04T01:28:20.530Z,12.95
2022-12-04T01:31:20.727Z,12.40
2022-12-04T01:33:48.603Z,14.18
2022-12-04T01:36:19.127Z,15.55
2022-12-04T01:38:46.737Z,13.30
2022-12-04T01:41:15.203Z,12.35
2022-12-04T01:43:43.007Z,12.23
2022-12-04T01:46:11.297Z,12.55
2022-12-04T01:48:47.329Z,12.80
2022-12-04T01:51:23.442Z,12.80
2022-12-04T01:53:53.605Z,12.52
2022-12-04T01:56:23.106Z,12.32
2022-12-04T01:58:53.204Z,11.88
2022-12-04T02:01:21.268Z,11.68
2022-12-04T02:03:49.285Z,11.75
2022-12-04T02:06:16.809Z,12.00
2022-12-04T02:08:44.373Z,11.73
2022-12-04T02:11:30.538Z,11.52
2022-12-04T02:14:07.269Z,11.45
2022-12-04T02:16:42.303Z,12.55
2022-12-04T02:19:27.558Z,11.98
2022-12-04T02:21:56.534Z,10.63
2022-12-04T02:24:31.431Z,11.38
2022-12-04T02:26:58.979Z,11.65
2022-12-04T02:29:35.765Z,10.35
2022-12-04T02:32:07.671Z,10.27
2022-12-04T02:34:35.204Z,10.57
2022-12-04T02:37:13.805Z,11.00
2022-12-04T02:39:45.005Z,10.85
2022-12-04T02:42:45.045Z,11.82
2022-12-04T02:45:14.405Z,12.00
2022-12-04T02:47:43.535Z,10.85
2022-12-04T02:50:13.550Z,11.38
2022-12-04T02:52:44.709Z,12.10
2022-12-04T02:55:18.475Z,13.35
2022-12-04T02:57:48.885Z,12.48
2022-12-04T03:00:16.831Z,12.45
2022-12-04T03:02:53.295Z,13.73
2022-12-04T03:05:23.075Z,13.38
2022-12-04T03:07:55.500Z,13.23
2022-12-04T03:10:30.462Z,13.43
2022-12-04T03:13:04.557Z,14.57
2022-12-04T03:15:35.945Z,13.65
2022-12-04T03:18:26.865Z,12.55
2022-12-04T03:20:58.160Z,13.27
2022-12-04T03:23:49.096Z,12.13
2022-12-04T03:26:22.281Z,12.55
2022-12-04T03:29:08.697Z,12.05
2022-12-04T03:31:40.510Z,13.02
2022-12-04T03:36:38.328Z,11.30
2022-12-04T03:39:09.246Z,12.05
2022-12-04T03:41:50.100Z,11.30
2022-12-04T03:44:36.266Z,11.40
2022-12-04T03:47:06.993Z,10.68
2022-12-04T03:49:53.437Z,11.60
2022-12-04T03:52:35.708Z,12.55
2022-12-04T03:55:13.851Z,11.68
2022-12-04T03:57:43.243Z,12.30
2022-12-04T04:00:15.623Z,10.90
2022-12-04T04:03:06.135Z,10.82
2022-12-04T04:05:34.878Z,12.95
2022-12-04T04:08:22.378Z,10.75
2022-12-04T04:10:51.498Z,11.35
2022-12-04T04:13:39.887Z,12.10
2022-12-04T04:16:28.370Z,11.13
2022-12-04T04:19:15.756Z,10.82
2022-12-04T04:22:03.315Z,11.02
2022-12-04T04:24:38.263Z,11.05
2022-12-04T04:27:05.837Z,9.63
2022-12-04T04:29:33.585Z,10.38
2022-12-04T04:32:07.683Z,10.52
2022-12-04T04:34:35.283Z,11.30
2022-12-04T04:37:17.827Z,10.93
2022-12-04T04:39:55.494Z,11.23
2022-12-04T04:42:28.329Z,11.40
2022-12-04T04:45:12.095Z,11.40
2022-12-04T04:47:44.770Z,10.55
2022-12-04T04:50:12.932Z,11.30
2022-12-04T04:52:41.869Z,10.68
2022-12-04T04:55:09.967Z,10.27
2022-12-04T04:57:38.034Z,10.25
2022-12-04T05:00:07.718Z,10.27
2022-12-04T05:02:35.400Z,9.80
2022-12-04T05:05:03.051Z,10.48
2022-12-04T05:07:30.632Z,10.13
2022-12-04T05:09:58.604Z,10.90
2022-12-04T05:12:26.361Z,10.30
2022-12-04T05:14:53.885Z,9.77
2022-12-04T05:17:21.424Z,11.07
2022-12-04T05:19:56.353Z,10.10
2022-12-04T05:22:29.333Z,11.45
2022-12-04T05:24:56.902Z,11.25
2022-12-04T05:27:25.580Z,11.18
2022-12-04T05:29:54.468Z,10.55
2022-12-04T05:32:24.097Z,10.55
2022-12-04T05:34:52.902Z,10.27
2022-12-04T05:37:20.898Z,11.20
2022-12-04T05:39:48.491Z,11.73
2022-12-04T05:42:16.409Z,11.73
2022-12-04T05:44:43.992Z,11.10
2022-12-04T05:47:12.583Z,10.82
2022-12-04T05:49:40.115Z,11.75
2022-12-04T05:52:07.779Z,12.00
2022-12-04T05:54:35.402Z,11.30
2022-12-04T05:57:03.055Z,11.80
2022-12-04T05:59:30.626Z,11.63
2022-12-04T06:01:58.244Z,11.63
2022-12-04T06:04:25.921Z,10.88
2022-12-04T06:06:53.985Z,11.07
2022-12-04T06:09:21.590Z,10.98
2022-12-04T06:11:49.205Z,11.60
2022-12-04T06:14:17.230Z,11.73
2022-12-04T06:16:46.093Z,10.73
2022-12-04T06:19:15.407Z,11.80
2022-12-04T06:21:43.658Z,10.93
2022-12-04T06:24:14.429Z,11.13
2022-12-04T06:27:04.050Z,11.85
2022-12-04T06:29:29.814Z,11.85
2022-12-04T06:31:57.419Z,11.88
2022-12-04T06:34:25.045Z,11.40
2022-12-04T06:36:52.597Z,12.38
2022-12-04T06:39:20.183Z,11.15
2022-12-04T06:41:47.942Z,11.30
2022-12-04T06:44:16.240Z,11.30
2022-12-04T06:46:47.095Z,12.70
2022-12-04T06:49:14.990Z,8.90
2022-12-04T06:51:42.648Z,12.82
2022-12-04T06:54:10.718Z,12.73
2022-12-04T06:56:38.245Z,11.57
2022-12-04T06:59:06.075Z,13.07
2022-12-04T07:01:34.703Z,12.88
2022-12-04T07:04:04.114Z,12.50
2022-12-04T07:06:35.000Z,12.63
2022-12-04T07:09:05.256Z,12.35
2022-12-04T07:11:32.985Z,13.70
2022-12-04T07:14:00.576Z,14.40
2022-12-04T07:16:28.815Z,13.80
2022-12-04T07:18:57.264Z,14.02
2022-12-04T07:21:27.513Z,12.80
2022-12-04T07:23:56.265Z,12.93
2022-12-04T07:26:24.406Z,13.52
2022-12-04T07:28:52.088Z,16.77
2022-12-04T07:31:21.900Z,12.48
2022-12-04T07:33:50.004Z,13.70
2022-12-04T07:36:21.881Z,13.32
2022-12-04T07:38:49.507Z,16.02
2022-12-04T07:41:17.183Z,13.13
2022-12-04T07:43:45.111Z,12.88
2022-12-04T07:46:15.246Z,11.73
2022-12-04T07:48:43.138Z,11.55
2022-12-04T07:51:15.560Z,10.35
2022-12-04T07:53:43.528Z,11.25
2022-12-04T07:56:12.103Z,12.00
2022-12-04T07:58:40.144Z,12.05
2022-12-04T08:01:10.844Z,12.63
2022-12-04T08:03:43.526Z,11.55
2022-12-04T08:06:13.020Z,11.63
2022-12-04T08:08:40.566Z,12.00
2022-12-04T08:11:09.565Z,11.02
2022-12-04T08:13:37.196Z,11.20
2022-12-04T08:16:05.872Z,11.85
2022-12-04T08:18:33.563Z,12.27
2022-12-04T08:21:05.577Z,11.65
2022-12-04T08:23:33.203Z,11.75
2022-12-04T08:26:01.518Z,11.32
2022-12-04T08:28:29.328Z,12.43
2022-12-04T08:31:02.308Z,11.05
2022-12-04T08:33:30.051Z,12.00
2022-12-04T08:35:57.733Z,11.65
2022-12-04T08:38:25.287Z,12.30
2022-12-04T08:40:52.855Z,12.55
2022-12-04T08:43:20.508Z,12.23
2022-12-04T08:45:55.839Z,12.45
2022-12-04T08:48:23.456Z,13.52
2022-12-04T08:50:51.013Z,12.45
2022-12-04T08:53:19.056Z,12.15
2022-12-04T08:55:46.678Z,13.15
2022-12-04T08:58:14.282Z,12.63
2022-12-04T09:00:41.854Z,12.52
2022-12-04T09:03:10.216Z,10.57
2022-12-04T09:05:37.729Z,12.48
2022-12-04T09:08:05.395Z,10.32
2022-12-04T09:10:34.401Z,11.18
2022-12-04T09:13:02.048Z,10.43
2022-12-04T09:15:29.770Z,11.35
2022-12-04T09:17:57.359Z,10.18
2022-12-04T09:20:24.922Z,10.43
2022-12-04T09:23:03.938Z,9.93
2022-12-04T09:25:32.443Z,11.18
2022-12-04T09:28:00.062Z,10.93
2022-12-04T09:30:27.626Z,11.75
2022-12-04T09:32:55.204Z,10.32
2022-12-04T09:35:22.762Z,11.93
2022-12-04T09:37:50.343Z,10.45
2022-12-04T09:40:35.167Z,11.27
2022-12-04T09:43:10.887Z,11.60
2022-12-04T09:45:45.439Z,11.40
2022-12-04T09:48:13.419Z,11.77
2022-12-04T09:50:42.687Z,11.55
2022-12-04T09:53:22.409Z,12.30
2022-12-04T09:55:59.574Z,13.25
2022-12-04T09:58:35.947Z,12.77
2022-12-04T10:01:04.127Z,12.90
2022-12-04T10:03:32.239Z,12.88
2022-12-04T10:06:06.127Z,12.50
2022-12-04T10:08:37.011Z,12.80
2022-12-04T10:11:27.686Z,13.63
2022-12-04T10:14:10.633Z,12.27
2022-12-04T10:16:50.519Z,11.70
2022-12-04T10:19:26.923Z,13.55
2022-12-04T10:22:14.864Z,12.80
2022-12-04T10:25:08.763Z,12.85
2022-12-04T10:27:49.470Z,13.65
2022-12-04T10:30:17.358Z,12.50
2022-12-04T10:32:45.670Z,12.50
2022-12-04T10:35:20.915Z,12.63
2022-12-04T10:37:50.158Z,12.90
2022-12-04T10:40:22.874Z,12.77
2022-12-04T10:42:54.030Z,12.98
2022-12-04T10:45:22.784Z,12.48
2022-12-04T10:47:51.633Z,12.07
2022-12-04T10:50:20.741Z,13.63
2022-12-04T10:52:48.713Z,14.05
2022-12-04T10:55:16.289Z,13.35
2022-12-04T10:57:45.660Z,12.80
2022-12-04T11:00:32.155Z,12.88
2022-12-04T11:03:04.887Z,13.57
2022-12-04T11:05:35.694Z,13.32
2022-12-04T11:08:05.120Z,13.93
2022-12-04T11:10:37.640Z,14.95
2022-12-04T11:13:07.198Z,13.68
2022-12-04T11:15:43.920Z,14.07
2022-12-04T11:18:31.196Z,13.45
2022-12-04T11:21:01.644Z,14.70
2022-12-04T11:23:55.365Z,13.48
2022-12-04T11:26:43.229Z,14.40
2022-12-04T11:29:14.902Z,14.48
2022-12-04T11:34:15.218Z,14.98
2022-12-04T11:36:43.113Z,14.15
2022-12-04T11:39:13.774Z,14.02
2022-12-04T11:41:41.348Z,14.68
2022-12-04T11:44:41.463Z,15.10
2022-12-04T11:47:17.172Z,14.93
2022-12-04T11:49:44.917Z,13.73
2022-12-04T11:52:37.850Z,14.00
2022-12-04T11:55:21.276Z,14.52
2022-12-04T11:57:54.130Z,14.43
2022-12-04T12:00:23.571Z,14.27
2022-12-04T12:02:51.202Z,15.13
2022-12-04T12:05:37.588Z,13.45
2022-12-04T12:08:05.137Z,14.15
2022-12-04T12:10:44.241Z,15.02
2022-12-04T12:13:17.847Z,15.27
2022-12-04T12:16:03.875Z,15.18
2022-12-04T12:18:34.424Z,13.52
2022-12-04T12:21:02.011Z,14.40
2022-12-04T12:23:40.528Z,14.32
2022-12-04T12:26:12.732Z,14.10
2022-12-04T12:28:43.346Z,13.63
2022-12-04T12:31:29.387Z,14.05
2022-12-04T12:34:01.065Z,12.60
2022-12-04T12:36:30.604Z,12.27
2022-12-04T12:39:01.091Z,11.80
2022-12-04T12:41:32.227Z,12.05
2022-12-04T12:44:05.658Z,12.05
2022-12-04T12:46:48.879Z,13.07
2022-12-04T12:49:19.504Z,12.32
2022-12-04T12:52:01.928Z,12.88
2022-12-04T12:54:32.272Z,12.57
2022-12-04T12:57:15.606Z,13.32
2022-12-04T12:59:47.159Z,12.43
2022-12-04T13:02:23.356Z,13.32
2022-12-04T13:04:52.971Z,15.15
2022-12-04T13:07:32.880Z,14.27
2022-12-04T13:10:04.269Z,25.35
2022-12-04T13:12:36.078Z,18.15
2022-12-04T13:15:03.702Z,17.85
2022-12-04T13:17:34.571Z,15.15
2022-12-04T13:20:09.587Z,14.97
2022-12-04T13:22:38.526Z,12.20
2022-12-04T13:25:19.409Z,14.63
2022-12-04T13:28:06.473Z,14.02
2022-12-04T13:30:49.061Z,12.88
2022-12-04T13:33:16.575Z,12.18
2022-12-04T13:35:44.112Z,15.82
2022-12-04T13:38:27.228Z,13.75
2022-12-04T13:40:56.660Z,13.90
2022-12-04T13:43:36.550Z,12.55
2022-12-04T13:46:22.990Z,12.90
2022-12-04T13:48:50.706Z,12.68
2022-12-04T13:51:21.257Z,13.63
2022-12-04T13:53:49.627Z,13.77
2022-12-04T13:56:28.466Z,16.30
2022-12-04T13:59:19.046Z,23.35
2022-12-04T14:01:47.992Z,24.33
2022-12-04T14:04:33.934Z,13.85
2022-12-04T14:07:03.559Z,14.10
2022-12-04T14:09:39.410Z,13.48
2022-12-04T14:12:08.572Z,13.10
2022-12-04T14:14:52.057Z,13.13
2022-12-04T14:17:21.509Z,14.35
2022-12-04T14:19:52.891Z,14.48
2022-12-04T14:22:29.706Z,14.38
2022-12-04T14:25:23.196Z,15.30
2022-12-04T14:27:52.350Z,13.45
2022-12-04T14:30:20.028Z,14.65
2022-12-04T14:32:49.772Z,15.80
2022-12-04T14:35:22.969Z,13.35
2022-12-04T14:37:53.441Z,14.32
2022-12-04T14:40:28.998Z,15.05
2022-12-04T14:42:56.700Z,16.00
2022-12-04T14:45:43.110Z,13.35
2022-12-04T14:48:22.632Z,15.70
2022-12-04T14:50:59.115Z,14.38
2022-12-04T14:53:32.692Z,15.27
2022-12-04T14:56:04.645Z,15.85
2022-12-04T14:58:38.332Z,15.07
2022-12-04T15:01:29.513Z,16.15
2022-12-04T15:03:59.680Z,16.17
2022-12-04T15:06:31.022Z,17.30
2022-12-04T15:09:18.884Z,17.38
2022-12-04T15:12:07.550Z,17.20
2022-12-04T15:14:45.008Z,19.50
2022-12-04T15:17:13.362Z,17.55
2022-12-04T15:19:41.010Z,17.38
2022-12-04T15:22:11.829Z,18.80
2022-12-04T15:24:39.692Z,19.15
2022-12-04T15:27:07.682Z,18.42
2022-12-04T15:29:38.099Z,20.02
2022-12-04T15:32:09.158Z,19.33
2022-12-04T15:34:43.723Z,19.70
2022-12-04T15:37:22.686Z,19.73
2022-12-04T15:39:52.462Z,19.10
2022-12-04T15:42:26.108Z,19.23
2022-12-04T15:45:08.694Z,18.75
2022-12-04T15:47:42.233Z,19.35
2022-12-04T15:50:09.870Z,21.25
2022-12-04T15:52:38.010Z,18.33
2022-12-04T15:55:09.851Z,20.58
2022-12-04T16:00:23.666Z,18.17
2022-12-04T16:02:51.735Z,17.02
2022-12-04T16:05:22.105Z,18.40
2022-12-04T16:07:53.905Z,17.58
2022-12-04T16:12:56.245Z,15.55
2022-12-04T16:15:24.917Z,15.68
2022-12-04T16:17:52.788Z,16.40
2022-12-04T16:20:20.901Z,16.60
2022-12-04T16:22:50.100Z,16.50
2022-12-04T16:25:17.944Z,16.23
2022-12-04T16:27:45.487Z,15.95
2022-12-04T16:30:14.481Z,16.42
2022-12-04T16:32:42.111Z,15.73
2022-12-04T16:35:14.738Z,16.17
2022-12-04T16:37:42.308Z,15.57
2022-12-04T16:40:10.561Z,16.92
2022-12-04T16:42:39.929Z,17.25
2022-12-04T16:45:26.404Z,15.35
2022-12-04T16:47:54.049Z,15.75
2022-12-04T16:50:21.630Z,16.90
2022-12-04T16:52:49.434Z,18.10
2022-12-04T16:55:19.341Z,16.42
2022-12-04T16:57:47.575Z,16.95
2022-12-04T17:00:16.039Z,16.83
2022-12-04T17:02:45.191Z,15.75
2022-12-04T17:05:20.400Z,15.30
2022-12-04T17:07:48.088Z,14.98
2022-12-04T17:10:21.790Z,15.73
2022-12-04T17:12:52.922Z,15.38
2022-12-04T17:15:20.481Z,15.52
2022-12-04T17:17:48.116Z,14.90
2022-12-04T17:20:16.950Z,15.77
2022-12-04T17:22:44.549Z,15.27
2022-12-04T17:25:12.576Z,14.77
2022-12-04T17:27:40.383Z,14.65
2022-12-04T17:30:08.461Z,15.70
2022-12-04T17:32:36.386Z,14.75
2022-12-04T17:35:04.705Z,14.90
2022-12-04T17:37:33.090Z,15.45
2022-12-04T17:40:00.634Z,16.33
2022-12-04T17:42:28.520Z,15.55
2022-12-04T17:44:57.945Z,15.27
2022-12-04T17:47:25.769Z,16.00
2022-12-04T17:49:53.376Z,15.27
2022-12-04T17:52:22.460Z,15.75
2022-12-04T17:54:50.624Z,15.55
2022-12-04T17:57:19.280Z,15.65
2022-12-04T17:59:46.845Z,15.52
2022-12-04T18:02:14.929Z,15.82
2022-12-04T18:04:42.905Z,14.93
2022-12-04T18:07:10.508Z,15.52
2022-12-04T18:09:38.048Z,14.82
2022-12-04T18:12:05.712Z,15.25
2022-12-04T18:14:35.082Z,16.05
2022-12-04T18:17:02.723Z,14.77
2022-12-04T18:19:30.701Z,14.40
2022-12-04T18:21:58.443Z,13.27
2022-12-04T18:24:26.839Z,13.18
2022-12-04T18:26:54.631Z,12.63
2022-12-04T18:29:24.842Z,12.95
2022-12-04T18:31:52.684Z,12.25
2022-12-04T18:34:20.780Z,13.57
2022-12-04T18:36:48.926Z,14.18
2022-12-04T18:39:24.026Z,13.13
2022-12-04T18:41:54.918Z,14.05
2022-12-04T18:44:22.565Z,14.73
2022-12-04T18:46:50.228Z,14.23
2022-12-04T18:49:17.788Z,14.57
2022-12-04T18:51:49.691Z,14.98
2022-12-04T18:54:20.032Z,15.13
2022-12-04T18:56:47.714Z,15.35
2022-12-04T18:59:16.952Z,13.95
2022-12-04T19:01:44.886Z,16.52
2022-12-04T19:04:13.711Z,15.02
2022-12-04T19:06:42.422Z,14.90
2022-12-04T19:09:12.122Z,15.02
2022-12-04T19:11:40.101Z,15.50
2022-12-04T19:14:16.094Z,15.43
2022-12-04T19:16:48.639Z,15.05
2022-12-04T19:19:19.459Z,15.40
2022-12-04T19:21:47.084Z,15.00
2022-12-04T19:24:14.642Z,14.43
2022-12-04T19:26:42.862Z,15.23
2022-12-04T19:29:13.760Z,15.18
2022-12-04T19:31:41.668Z,15.05
2022-12-04T19:34:09.275Z,15.35
2022-12-04T19:36:36.949Z,15.05
2022-12-04T19:39:06.915Z,15.43
2022-12-04T19:41:35.209Z,14.43
2022-12-04T19:44:14.593Z,14.60
2022-12-04T19:46:50.416Z,14.40
2022-12-04T19:49:17.953Z,13.75
2022-12-04T19:51:46.624Z,13.88
2022-12-04T19:54:15.055Z,13.70
2022-12-04T19:56:45.921Z,13.60
2022-12-04T19:59:13.526Z,12.80
2022-12-04T20:01:41.164Z,13.23
2022-12-04T20:04:09.277Z,12.10
2022-12-04T20:06:38.374Z,13.27
2022-12-04T20:09:07.461Z,12.32
2022-12-04T20:11:35.225Z,12.93
2022-12-04T20:14:03.324Z,12.05
2022-12-04T20:16:31.515Z,12.25
2022-12-04T20:18:59.249Z,11.88
2022-12-04T20:21:32.324Z,11.02
2022-12-04T20:24:01.793Z,12.13
2022-12-04T20:26:30.885Z,11.57
2022-12-04T20:28:59.128Z,11.38
2022-12-04T20:31:40.257Z,11.82
2022-12-04T20:34:12.842Z,11.25
2022-12-04T20:36:41.779Z,11.00
2022-12-04T20:39:10.041Z,11.20
2022-12-04T20:41:38.167Z,10.65
2022-12-04T20:44:07.016Z,11.40
2022-12-04T20:46:36.112Z,10.27
2022-12-04T20:49:05.695Z,9.63
2022-12-04T20:51:34.546Z,9.65
2022-12-04T20:54:02.626Z,9.90
2022-12-04T20:56:31.829Z,10.60
2022-12-04T20:59:00.710Z,11.60
2022-12-04T21:01:28.826Z,11.32
2022-12-04T21:03:56.863Z,10.95
2022-12-04T21:06:34.494Z,12.00
2022-12-04T21:09:05.811Z,10.77
2022-12-04T21:11:33.502Z,10.63
2022-12-04T21:14:20.168Z,10.57
2022-12-04T21:16:48.546Z,10.75
2022-12-04T21:19:17.376Z,10.30
2022-12-04T21:21:45.185Z,10.52
2022-12-04T21:24:14.225Z,10.27
2022-12-04T21:26:41.844Z,11.18
2022-12-04T21:29:09.624Z,10.30
2022-12-04T21:31:37.828Z,10.40
2022-12-04T21:34:06.603Z,11.15
2022-12-04T21:36:34.306Z,10.32
2022-12-04T21:39:01.987Z,11.43
2022-12-04T21:41:48.194Z,10.90
2022-12-04T21:44:17.575Z,10.75
2022-12-04T21:46:46.092Z,10.25
2022-12-04T21:49:14.125Z,11.00
2022-12-04T21:51:57.280Z,10.82
2022-12-04T21:54:25.686Z,10.02
2022-12-04T21:56:53.247Z,9.75
2022-12-04T21:59:20.817Z,10.43
2022-12-04T22:01:48.566Z,10.15
2022-12-04T22:04:16.244Z,10.27
2022-12-04T22:06:43.973Z,11.10
2022-12-04T22:09:12.482Z,11.85
2022-12-04T22:11:41.431Z,10.93
2022-12-04T22:14:09.491Z,10.88
2022-12-04T22:16:42.000Z,11.18
2022-12-04T22:19:10.465Z,10.48
2022-12-04T22:21:38.085Z,11.02
2022-12-04T22:24:05.895Z,10.23
2022-12-04T22:26:33.992Z,11.10
2022-12-04T22:29:03.159Z,10.90
2022-12-04T22:31:32.784Z,11.27
2022-12-04T22:34:01.356Z,10.35
2022-12-04T22:36:30.384Z,10.32
2022-12-04T22:39:09.215Z,11.85
2022-12-04T22:41:37.997Z,11.07
2022-12-04T22:44:06.143Z,10.63
2022-12-04T22:46:33.910Z,10.40
2022-12-04T22:49:01.578Z,11.10
2022-12-04T22:51:29.402Z,10.88
2022-12-04T22:53:58.751Z,11.07
2022-12-04T22:56:31.043Z,11.07
2022-12-04T22:58:59.122Z,11.65
2022-12-04T23:01:27.883Z,10.00
2022-12-04T23:03:55.925Z,10.98
2022-12-04T23:06:24.573Z,11.57
2022-12-04T23:09:00.991Z,11.23
2022-12-04T23:11:28.914Z,10.30
2022-12-04T23:13:59.922Z,9.57
2022-12-04T23:16:28.099Z,10.32
2022-12-04T23:18:56.017Z,10.52
2022-12-04T23:21:24.249Z,10.43
2022-12-04T23:23:52.351Z,9.95
2022-12-04T23:26:24.755Z,10.25
2022-12-04T23:28:52.318Z,10.30
2022-12-04T23:31:20.197Z,10.80
2022-12-04T23:33:47.773Z,10.75
2022-12-04T23:36:15.804Z,11.23
2022-12-04T23:38:44.244Z,10.82
2022-12-04T23:41:13.086Z,9.43
2022-12-04T23:43:41.048Z,10.52
2022-12-04T23:46:11.224Z,10.77
2022-12-04T23:48:39.763Z,10.68
2022-12-04T23:51:07.859Z,10.60
2022-12-04T23:53:35.839Z,10.30
2022-12-04T23:56:07.340Z,10.80
2022-12-04T23:58:35.567Z,10.88
